Time;durP1;ratioP1;P1;durP2;ratioP2;P2;SDS_P1;SDS_P2;PMS_P1;PMS_P2;Temp;Humidity;BMP_temperature;BMP_pressure;BME280_temperature;BME280_humidity;BME280_pressure;Samples;Min_cycle;Max_cycle;Signal;HPM_P1;HPM_P2
2021/04/02 00:00:28;;;;;;;4.03;1.20;;;;;;;18.80;31.02;100281.22;4932029;29;20130;-73
2021/04/02 00:02:55;;;;;;;4.63;1.70;;;;;;;18.82;31.01;100281.94;4921929;29;20066;-72
2021/04/02 00:05:21;;;;;;;3.05;1.23;;;;;;;18.69;31.33;100283.06;4904840;29;20499;-72
2021/04/02 00:07:48;;;;;;;2.95;1.48;;;;;;;18.72;31.29;100282.81;4929249;29;20036;-73
2021/04/02 00:10:19;;;;;;;4.53;1.70;;;;;;;18.75;31.38;100275.50;4926697;29;20128;-72
2021/04/02 00:12:46;;;;;;;1.27;1.17;;;;;;;18.69;31.03;100275.97;4927922;29;20127;-72
2021/04/02 00:15:18;;;;;;;6.95;1.20;;;;;;;18.66;31.15;100276.22;4929371;29;20098;-73
2021/04/02 00:17:51;;;;;;;2.63;1.20;;;;;;;18.43;32.09;100272.00;4925840;29;20044;-72
2021/04/02 00:20:19;;;;;;;1.90;1.70;;;;;;;18.35;31.97;100267.34;4929414;29;20052;-70
2021/04/02 00:22:46;;;;;;;3.20;1.77;;;;;;;18.42;31.78;100267.69;4926107;29;20103;-71
2021/04/02 00:25:14;;;;;;;2.78;1.35;;;;;;;18.45;31.25;100270.91;4928946;29;20063;-70
2021/04/02 00:27:42;;;;;;;3.22;1.23;;;;;;;18.35;31.46;100266.53;4928287;29;20471;-70
2021/04/02 00:30:15;;;;;;;1.77;1.08;;;;;;;18.33;31.79;100264.84;4924645;29;20073;-70
2021/04/02 00:32:42;;;;;;;3.83;1.85;;;;;;;18.41;31.66;100263.38;4923865;29;20139;-71
2021/04/02 00:35:11;;;;;;;3.47;1.17;;;;;;;18.28;32.17;100256.47;4928717;29;20126;-73
2021/04/02 00:37:37;;;;;;;9.32;1.38;;;;;;;18.33;31.69;100259.56;4928859;29;20134;-72
2021/04/02 00:40:09;;;;;;;2.30;1.55;;;;;;;18.24;32.25;100256.84;4925619;29;20067;-71
2021/04/02 00:42:36;;;;;;;9.88;2.53;;;;;;;18.19;32.11;100262.50;4925882;29;20036;-71
2021/04/02 00:45:03;;;;;;;2.17;1.85;;;;;;;18.11;32.29;100254.38;4926225;29;20065;-71
2021/04/02 00:47:29;;;;;;;3.10;1.75;;;;;;;17.91;32.85;100263.06;4911593;29;20447;-72
2021/04/02 00:49:56;;;;;;;4.10;2.10;;;;;;;17.33;34.31;100276.38;4913058;29;20447;-71
2021/04/02 00:52:22;;;;;;;6.07;2.70;;;;;;;17.33;34.66;100278.16;4914797;29;20044;-72
2021/04/02 00:54:48;;;;;;;8.90;2.15;;;;;;;17.36;34.20;100280.53;4929167;29;20585;-71
2021/04/02 00:57:15;;;;;;;2.63;2.28;;;;;;;17.21;34.64;100285.22;4927721;29;20044;-71
2021/04/02 00:59:42;;;;;;;9.40;2.63;;;;;;;16.93;35.19;100283.84;4925275;29;20040;-72
2021/04/02 01:02:08;;;;;;;5.68;3.58;;;;;;;16.93;35.00;100292.56;4926858;29;20122;-71
2021/04/02 01:04:37;;;;;;;6.00;2.25;;;;;;;16.92;35.33;100292.69;4913567;29;20066;-73
2021/04/02 01:07:04;;;;;;;9.45;2.33;;;;;;;16.84;35.81;100300.34;4897412;29;20036;-73
2021/04/02 01:09:30;;;;;;;6.07;3.33;;;;;;;16.88;35.72;100313.16;4926646;29;20063;-73
2021/04/02 01:11:57;;;;;;;9.15;3.17;;;;;;;16.86;36.09;100314.22;4929489;29;20040;-73
2021/04/02 01:14:24;;;;;;;6.53;3.13;;;;;;;16.80;36.23;100304.16;4906646;29;20507;-73
2021/04/02 01:16:51;;;;;;;8.65;3.42;;;;;;;16.84;36.05;100295.94;4924699;29;20088;-72
2021/04/02 01:19:31;;;;;;;8.13;4.60;;;;;;;16.85;35.91;100294.97;4927929;29;20139;-73
2021/04/02 01:22:06;;;;;;;14.82;4.63;;;;;;;16.82;36.26;100307.50;4928618;29;20043;-71
2021/04/02 01:24:55;;;;;;;15.38;3.53;;;;;;;16.83;36.25;100306.56;4925471;29;20501;-71
2021/04/02 01:27:43;;;;;;;3.92;3.20;;;;;;;16.90;36.25;100299.88;4927322;29;20050;-74
2021/04/02 01:30:10;;;;;;;6.93;3.80;;;;;;;16.97;35.83;100298.47;4930297;29;20135;-71
2021/04/02 01:32:44;;;;;;;8.43;3.92;;;;;;;17.07;35.91;100288.91;4914928;29;20407;-71
2021/04/02 01:35:16;;;;;;;6.85;3.20;;;;;;;17.04;35.82;100294.41;4920283;29;20067;-71
2021/04/02 01:37:49;;;;;;;7.97;3.83;;;;;;;17.11;35.63;100298.25;4920577;29;20463;-68
2021/04/02 01:40:18;;;;;;;10.75;3.72;;;;;;;17.15;35.44;100291.81;4920217;29;20376;-68
2021/04/02 01:42:46;;;;;;;4.03;2.65;;;;;;;17.16;35.26;100290.84;4937771;29;20494;-68
2021/04/02 01:45:17;;;;;;;5.43;3.42;;;;;;;17.02;35.46;100285.78;4937259;29;20047;-69
2021/04/02 01:47:47;;;;;;;4.25;3.05;;;;;;;16.93;35.58;100289.09;4920202;29;20103;-69
2021/04/02 01:50:17;;;;;;;11.27;3.35;;;;;;;16.87;35.41;100293.03;4951521;29;20052;-69
2021/04/02 01:52:45;;;;;;;10.18;3.50;;;;;;;16.75;35.59;100289.56;4920375;29;20043;-69
2021/04/02 01:55:15;;;;;;;6.88;2.35;;;;;;;16.59;35.98;100288.16;4936892;29;20047;-69
2021/04/02 01:57:46;;;;;;;10.02;3.17;;;;;;;16.68;35.90;100277.78;4920403;29;20107;-69
2021/04/02 02:00:20;;;;;;;4.88;2.85;;;;;;;16.65;36.49;100280.63;4919997;29;20044;-69
2021/04/02 02:02:53;;;;;;;7.53;2.72;;;;;;;16.58;36.50;100279.41;4931521;29;20405;-69
2021/04/02 02:05:21;;;;;;;9.05;3.10;;;;;;;16.64;36.83;100271.06;4919753;29;20055;-69
2021/04/02 02:07:50;;;;;;;11.00;3.67;;;;;;;16.67;36.40;100270.84;4919822;29;20043;-69
2021/04/02 02:10:21;;;;;;;6.97;3.10;;;;;;;16.78;36.00;100272.69;4919830;29;20044;-69
2021/04/02 02:12:49;;;;;;;14.85;3.40;;;;;;;16.46;36.73;100267.19;4919839;29;20376;-70
2021/04/02 02:15:29;;;;;;;11.73;4.25;;;;;;;16.49;36.40;100267.78;4919570;29;20106;-69
2021/04/02 02:18:01;;;;;;;7.70;3.65;;;;;;;16.40;36.56;100263.19;4912875;29;20047;-69
2021/04/02 02:20:30;;;;;;;10.50;3.70;;;;;;;16.51;36.60;100262.38;4922007;29;20373;-70
2021/04/02 02:22:59;;;;;;;13.25;4.30;;;;;;;16.30;37.09;100262.22;4908343;29;20491;-69
2021/04/02 02:25:28;;;;;;;8.48;3.25;;;;;;;16.35;37.48;100261.84;4910449;29;20040;-70
2021/04/02 02:28:04;;;;;;;4.35;3.15;;;;;;;16.29;37.33;100263.13;4925461;29;20035;-70
2021/04/02 02:30:32;;;;;;;7.30;3.10;;;;;;;16.40;37.28;100267.59;4906079;29;20993;-70
2021/04/02 02:33:16;;;;;;;8.90;2.72;;;;;;;16.30;37.44;100261.34;4908409;29;20072;-70
2021/04/02 02:35:54;;;;;;;8.77;2.53;;;;;;;16.32;37.80;100270.81;4912514;29;20056;-69
2021/04/02 02:38:22;;;;;;;5.28;3.05;;;;;;;16.20;38.64;100266.47;4924362;29;20730;-70
2021/04/02 02:40:50;;;;;;;11.10;3.70;;;;;;;16.14;38.26;100270.38;4923010;29;20044;-70
2021/04/02 02:43:19;;;;;;;10.15;2.92;;;;;;;16.11;39.15;100272.38;4927460;29;20054;-70
2021/04/02 02:45:46;;;;;;;9.40;3.30;;;;;;;16.11;39.19;100272.38;4909329;29;20407;-70
2021/04/02 02:48:14;;;;;;;11.10;3.33;;;;;;;16.26;38.74;100266.00;4908878;29;20383;-69
2021/04/02 02:50:45;;;;;;;3.55;2.10;;;;;;;16.12;38.44;100272.25;4925806;29;20051;-70
2021/04/02 02:53:15;;;;;;;5.03;2.80;;;;;;;15.94;39.13;100263.09;4910447;29;20070;-70
2021/04/02 02:55:45;;;;;;;5.95;2.28;;;;;;;16.00;39.40;100261.81;4910935;29;20139;-70
2021/04/02 02:58:20;;;;;;;4.50;2.75;;;;;;;15.92;39.33;100268.44;4910356;29;20465;-70
2021/04/02 03:00:49;;;;;;;7.22;2.33;;;;;;;15.89;39.43;100260.78;4922072;29;20490;-69
2021/04/02 03:03:18;;;;;;;9.02;2.65;;;;;;;15.82;39.87;100263.94;4907340;29;20040;-70
2021/04/02 03:05:51;;;;;;;6.60;2.33;;;;;;;15.82;39.55;100251.66;4924666;29;20562;-69
2021/04/02 03:08:26;;;;;;;4.28;2.35;;;;;;;15.83;39.98;100265.66;4907834;29;20193;-70
2021/04/02 03:10:59;;;;;;;3.60;2.08;;;;;;;15.88;39.86;100258.28;4921867;29;20051;-70
2021/04/02 03:13:28;;;;;;;4.97;3.10;;;;;;;15.88;39.55;100253.03;4912384;29;20040;-70
2021/04/02 03:15:59;;;;;;;5.13;2.22;;;;;;;15.79;40.10;100251.03;4910427;29;20031;-71
2021/04/02 03:18:28;;;;;;;6.43;2.97;;;;;;;15.94;39.23;100260.47;4908042;29;20135;-70
2021/04/02 03:20:59;;;;;;;11.25;2.92;;;;;;;15.71;40.05;100256.81;4924206;29;20493;-70
2021/04/02 03:23:27;;;;;;;3.10;1.83;;;;;;;15.75;40.13;100258.28;4912748;29;20044;-70
2021/04/02 03:25:55;;;;;;;3.70;2.00;;;;;;;15.71;40.09;100256.81;4919781;29;20076;-70
2021/04/02 03:28:23;;;;;;;6.95;2.33;;;;;;;15.75;39.47;100262.72;4910445;29;20071;-70
2021/04/02 03:30:55;;;;;;;7.22;2.67;;;;;;;15.60;39.90;100260.19;4910487;29;20039;-70
2021/04/02 03:33:31;;;;;;;5.28;2.00;;;;;;;15.70;39.95;100260.41;4920567;29;20067;-70
2021/04/02 03:36:24;;;;;;;3.70;2.03;;;;;;;15.83;39.34;100255.13;4904584;29;20044;-70
2021/04/02 03:38:54;;;;;;;9.00;1.95;;;;;;;15.89;39.26;100265.22;4909420;29;20074;-70
2021/04/02 03:41:33;;;;;;;5.03;2.17;;;;;;;16.01;38.74;100252.97;4926676;29;20063;-70
2021/04/02 03:44:06;;;;;;;3.67;2.03;;;;;;;16.05;38.76;100255.25;4908673;29;20048;-69
2021/04/02 03:46:36;;;;;;;5.85;2.90;;;;;;;16.05;38.79;100257.91;4923690;29;20103;-70
2021/04/02 03:49:10;;;;;;;3.95;1.95;;;;;;;15.68;39.30;100255.28;4909341;29;20130;-71
2021/04/02 03:51:42;;;;;;;7.78;2.25;;;;;;;15.62;39.59;100254.84;4923761;29;20059;-70
2021/04/02 03:54:12;;;;;;;3.05;1.98;;;;;;;15.50;39.78;100255.69;4905880;29;20076;-69
2021/04/02 03:56:43;;;;;;;5.65;3.03;;;;;;;15.52;39.91;100256.44;4923562;29;20052;-68
2021/04/02 03:59:13;;;;;;;;;;;;;;;15.61;39.32;100246.13;4924239;29;20054;-68
2021/04/02 04:01:50;;;;;;;2.95;2.63;;;;;;;15.56;39.47;100247.41;4941459;29;20324;-71
2021/04/02 04:04:21;;;;;;;6.40;1.83;;;;;;;15.53;39.20;100244.97;4937659;28;20414;-71
2021/04/02 04:06:52;;;;;;;14.45;2.58;;;;;;;15.45;39.43;100249.00;4925920;29;20159;-72
2021/04/02 04:09:23;;;;;;;9.55;2.28;;;;;;;15.61;39.65;100250.53;4911809;29;20043;-70
2021/04/02 04:11:56;;;;;;;4.40;2.03;;;;;;;15.55;39.47;100249.16;4925819;29;20044;-71
2021/04/02 04:14:44;;;;;;;5.68;3.45;;;;;;;15.50;39.24;100261.81;4909881;29;20688;-71
2021/04/02 04:17:13;;;;;;;4.40;2.10;;;;;;;15.43;39.77;100260.53;4906257;29;20052;-69
2021/04/02 04:19:47;;;;;;;11.63;2.88;;;;;;;15.42;39.76;100262.31;4905949;29;20040;-70
2021/04/02 04:22:22;;;;;;;9.55;2.55;;;;;;;15.45;40.00;100254.25;4919070;29;20076;-70
2021/04/02 04:24:51;;;;;;;7.82;3.63;;;;;;;15.53;39.79;100251.06;4925582;29;20100;-69
2021/04/02 04:27:19;;;;;;;9.20;2.22;;;;;;;15.38;39.98;100262.66;4921969;29;20098;-70
2021/04/02 04:29:50;;;;;;;8.13;2.40;;;;;;;15.25;40.70;100252.16;4924394;29;20107;-70
2021/04/02 04:32:20;;;;;;;8.75;2.63;;;;;;;15.30;40.89;100255.31;4925755;29;20495;-69
2021/04/02 04:34:49;;;;;;;7.28;2.35;;;;;;;15.31;40.89;100257.00;4923694;29;20047;-69
2021/04/02 04:37:18;;;;;;;9.63;2.00;;;;;;;15.08;41.38;100261.22;4921054;29;20047;-69
2021/04/02 04:39:47;;;;;;;6.47;2.17;;;;;;;15.03;41.02;100258.06;4919508;29;20442;-67
2021/04/02 04:42:19;;;;;;;27.85;2.95;;;;;;;14.98;41.26;100257.53;4934106;29;20036;-67
2021/04/02 04:44:48;;;;;;;4.95;1.85;;;;;;;15.10;41.04;100256.69;4934796;29;20491;-69
2021/04/02 04:47:16;;;;;;;7.85;2.13;;;;;;;14.96;41.24;100256.78;4934191;29;20432;-69
2021/04/02 04:49:44;;;;;;;8.90;2.85;;;;;;;15.01;41.66;100252.03;4934742;29;20399;-69
2021/04/02 04:52:15;;;;;;;3.13;1.88;;;;;;;15.00;41.50;100246.91;4935680;29;20051;-69
2021/04/02 04:54:48;;;;;;;3.97;2.08;;;;;;;14.98;42.13;100248.81;4937992;29;20050;-69
2021/04/02 04:57:15;;;;;;;5.88;1.58;;;;;;;14.93;42.07;100251.75;4938151;29;20047;-68
2021/04/02 04:59:43;;;;;;;6.28;1.92;;;;;;;15.15;42.53;100249.31;4937403;29;20114;-68
2021/04/02 05:02:12;;;;;;;4.80;3.28;;;;;;;15.04;41.18;100238.72;4937129;29;20530;-67
2021/04/02 05:04:39;;;;;;;5.55;2.22;;;;;;;15.08;41.31;100242.81;4935376;29;20075;-67
2021/04/02 05:07:08;;;;;;;5.82;1.98;;;;;;;15.17;41.15;100246.59;4937559;29;20047;-68
2021/04/02 05:09:37;;;;;;;7.82;1.60;;;;;;;15.28;40.39;100237.97;4936685;29;20058;-68
2021/04/02 05:12:07;;;;;;;2.85;1.80;;;;;;;15.25;40.80;100238.19;4936620;29;20134;-67
2021/04/02 05:14:35;;;;;;;12.07;2.28;;;;;;;15.44;39.64;100230.69;4937124;29;20059;-67
2021/04/02 05:17:02;;;;;;;5.53;2.15;;;;;;;15.50;40.00;100234.66;4936386;29;20075;-67
2021/04/02 05:19:30;;;;;;;3.88;2.28;;;;;;;15.41;39.82;100238.81;4936359;29;20227;-67
2021/04/02 05:21:56;;;;;;;9.57;3.03;;;;;;;15.27;40.30;100246.78;4937454;29;20395;-67
2021/04/02 05:24:23;;;;;;;12.63;2.08;;;;;;;15.35;39.85;100247.13;4930690;29;20083;-67
2021/04/02 05:26:50;;;;;;;9.90;3.03;;;;;;;15.77;38.97;100245.91;4926234;29;20434;-68
2021/04/02 05:29:17;;;;;;;14.90;3.33;;;;;;;15.76;39.78;100251.25;4925794;29;20049;-67
2021/04/02 05:31:44;;;;;;;5.03;2.72;;;;;;;15.96;39.17;100254.13;4927344;29;20041;-68
2021/04/02 05:34:14;;;;;;;7.50;2.38;;;;;;;16.09;39.25;100256.72;4926997;29;20102;-66
2021/04/02 05:36:40;;;;;;;12.15;2.28;;;;;;;16.36;38.21;100261.75;4930514;29;20509;-66
2021/04/02 05:39:07;;;;;;;7.63;2.70;;;;;;;16.35;38.27;100259.22;4928212;29;20067;-67
2021/04/02 05:41:59;;;;;;;5.10;2.70;;;;;;;16.45;38.61;100265.47;4922144;29;20050;-66
2021/04/02 05:44:28;;;;;;;5.90;1.98;;;;;;;16.69;38.93;100262.81;4926396;29;20131;-67
2021/04/02 05:47:00;;;;;;;7.40;2.08;;;;;;;17.00;38.23;100271.91;4913007;29;20455;-68
2021/04/02 05:49:28;;;;;;;9.13;2.25;;;;;;;17.31;38.00;100272.16;4928700;29;20410;-67
2021/04/02 05:51:56;;;;;;;4.78;1.88;;;;;;;17.69;36.92;100275.28;4929707;29;20162;-67
2021/04/02 05:54:28;;;;;;;5.30;2.13;;;;;;;17.83;36.63;100270.72;4923810;29;20047;-67
2021/04/02 05:56:54;;;;;;;6.75;2.42;;;;;;;18.06;36.24;100270.59;4928054;29;20036;-67
2021/04/02 05:59:22;;;;;;;8.10;2.30;;;;;;;18.23;36.10;100274.47;4926696;29;20092;-67
2021/04/02 06:01:50;;;;;;;7.75;2.22;;;;;;;18.75;35.18;100277.28;4930166;29;20044;-67
2021/04/02 06:04:18;;;;;;;16.80;2.97;;;;;;;18.81;35.11;100276.78;4924676;29;20043;-67
2021/04/02 06:06:46;;;;;;;11.45;2.85;;;;;;;19.06;35.04;100273.72;4924253;29;20048;-67
2021/04/02 06:09:13;;;;;;;9.63;2.38;;;;;;;19.43;34.30;100275.03;4929243;29;20047;-67
2021/04/02 06:11:40;;;;;;;14.88;3.55;;;;;;;19.37;34.16;100273.75;4926800;29;20570;-67
2021/04/02 06:14:08;;;;;;;6.68;3.05;;;;;;;19.82;34.19;100262.81;4926216;29;20036;-67
2021/04/02 06:16:34;;;;;;;8.63;3.03;;;;;;;20.17;33.45;100264.94;4926699;29;20051;-67
2021/04/02 06:19:09;;;;;;;6.78;2.63;;;;;;;20.64;32.63;100262.47;4928182;29;20152;-67
2021/04/02 06:21:56;;;;;;;9.00;2.45;;;;;;;20.96;32.27;100271.91;4925679;29;20052;-66
2021/04/02 06:24:43;;;;;;;10.65;3.30;;;;;;;21.27;31.29;100276.03;4926875;29;20054;-67
2021/04/02 06:27:14;;;;;;;4.10;2.80;;;;;;;21.55;30.67;100273.44;4923551;29;20044;-67
2021/04/02 06:29:43;;;;;;;14.77;3.72;;;;;;;22.08;29.92;100276.19;4925911;29;20509;-67
2021/04/02 06:32:14;;;;;;;14.35;3.58;;;;;;;22.56;29.12;100274.19;4930200;29;20454;-66
2021/04/02 06:34:46;;;;;;;14.80;4.15;;;;;;;22.66;27.77;100272.28;4924972;29;20071;-67
2021/04/02 06:37:15;;;;;;;7.85;2.60;;;;;;;23.18;27.58;100269.69;4926658;29;20070;-66
2021/04/02 06:39:49;;;;;;;17.30;2.72;;;;;;;23.11;26.46;100273.94;4932068;29;20079;-67
2021/04/02 06:42:30;;;;;;;9.88;2.88;;;;;;;22.92;23.67;100281.16;4929093;29;20454;-65
2021/04/02 06:45:07;;;;;;;2.53;1.80;;;;;;;22.86;23.12;100275.59;4930308;29;20143;-67
2021/04/02 06:47:38;;;;;;;7.63;1.73;;;;;;;23.30;23.33;100276.41;4933063;29;20044;-66
2021/04/02 06:50:24;;;;;;;4.35;1.92;;;;;;;23.33;22.26;100275.25;4935733;29;20076;-66
2021/04/02 06:52:53;;;;;;;1.95;1.75;;;;;;;24.20;21.87;100279.41;4936316;29;20111;-65
2021/04/02 06:55:22;;;;;;;5.55;2.03;;;;;;;23.69;22.63;100286.59;4935810;29;20050;-66
2021/04/02 06:57:50;;;;;;;5.63;2.05;;;;;;;24.16;22.20;100273.56;4936074;29;20051;-66
2021/04/02 07:00:19;;;;;;;7.55;2.55;;;;;;;24.68;21.26;100280.50;4936079;29;20040;-66
2021/04/02 07:02:48;;;;;;;9.93;2.10;;;;;;;25.40;20.61;100276.03;4935787;29;20525;-66
2021/04/02 07:05:19;;;;;;;8.55;2.33;;;;;;;24.95;20.59;100280.13;4935619;29;20043;-66
2021/04/02 07:07:52;;;;;;;4.35;1.90;;;;;;;24.57;20.93;100281.66;4935726;29;20111;-66
2021/04/02 07:10:21;;;;;;;16.75;2.67;;;;;;;25.04;21.19;100287.13;4918947;29;20048;-66
2021/04/02 07:12:50;;;;;;;4.35;2.58;;;;;;;25.66;20.65;100283.78;4935763;29;20048;-66
2021/04/02 07:15:17;;;;;;;3.88;2.00;;;;;;;25.56;20.83;100281.31;4934890;29;20067;-66
2021/04/02 07:17:47;;;;;;;8.95;3.33;;;;;;;25.96;20.06;100279.50;4935769;29;20048;-66
2021/04/02 07:20:15;;;;;;;5.40;2.17;;;;;;;26.41;19.95;100277.88;4935635;29;20115;-66
2021/04/02 07:22:42;;;;;;;4.80;1.88;;;;;;;26.47;19.93;100281.69;4928697;29;20059;-65
2021/04/02 07:25:10;;;;;;;5.65;2.30;;;;;;;26.96;20.04;100275.94;4916609;29;20036;-65
2021/04/02 07:27:37;;;;;;;10.02;3.05;;;;;;;27.23;18.47;100274.53;4934296;29;20047;-67
2021/04/02 07:30:08;;;;;;;5.65;2.22;;;;;;;27.38;18.71;100272.69;4932664;29;20051;-68
2021/04/02 07:32:38;;;;;;;14.63;3.08;;;;;;;27.53;18.34;100278.00;4934069;29;20051;-68
2021/04/02 07:35:05;;;;;;;5.07;2.30;;;;;;;27.54;18.83;100280.50;4932658;29;20126;-68
2021/04/02 07:37:36;;;;;;;6.35;2.30;;;;;;;27.57;18.04;100276.63;4934652;29;20131;-64
2021/04/02 07:40:07;;;;;;;7.28;2.72;;;;;;;27.53;18.69;100278.00;4933092;29;20071;-68
2021/04/02 07:42:34;;;;;;;8.80;2.55;;;;;;;27.80;18.57;100273.84;4934271;29;20075;-66
2021/04/02 07:45:02;;;;;;;7.70;3.22;;;;;;;28.30;18.15;100275.63;4934425;29;20126;-71
2021/04/02 07:47:28;;;;;;;5.15;2.20;;;;;;;28.60;17.01;100268.28;4915101;29;20526;-68
2021/04/02 07:50:02;;;;;;;11.70;2.58;;;;;;;28.41;17.19;100269.78;4907070;29;20180;-68
2021/04/02 07:52:35;;;;;;;7.72;2.80;;;;;;;28.14;18.20;100282.06;4927249;29;20494;-70
2021/04/02 07:55:08;;;;;;;14.63;2.50;;;;;;;27.72;17.45;100280.16;4933193;29;20058;-70
2021/04/02 07:58:01;;;;;;;9.05;2.15;;;;;;;28.70;17.55;100276.84;4933989;29;20046;-69
2021/04/02 08:00:35;;;;;;;4.30;1.73;;;;;;;28.84;17.13;100274.28;4930430;29;20051;-70
2021/04/02 08:03:07;;;;;;;9.82;3.08;;;;;;;28.49;17.02;100281.41;4933780;29;20439;-70
2021/04/02 08:05:34;;;;;;;8.20;2.95;;;;;;;28.67;17.48;100273.75;4931790;29;20040;-70
2021/04/02 08:08:00;;;;;;;5.90;2.00;;;;;;;28.52;16.98;100275.66;4933598;29;20509;-70
2021/04/02 08:10:27;;;;;;;5.30;2.95;;;;;;;28.42;17.45;100270.63;4932233;29;20051;-71
2021/04/02 08:12:54;;;;;;;6.22;2.60;;;;;;;28.48;17.16;100274.38;4926581;29;20051;-70
2021/04/02 08:15:21;;;;;;;6.88;2.42;;;;;;;28.74;16.76;100261.19;4933097;29;20052;-71
2021/04/02 08:17:47;;;;;;;6.20;2.15;;;;;;;28.36;17.41;100260.66;4917269;29;20048;-71
2021/04/02 08:20:19;;;;;;;7.00;2.95;;;;;;;29.34;16.81;100262.44;4928184;29;20067;-70
2021/04/02 08:22:53;;;;;;;4.63;2.30;;;;;;;29.46;16.88;100262.72;4925499;29;20043;-70
2021/04/02 08:25:22;;;;;;;;;;;;;;;29.78;16.85;100249.66;4931451;29;20047;-71
2021/04/02 08:27:48;;;;;;;6.80;2.83;;;;;;;29.79;17.00;100251.31;4923301;29;19930;-65
2021/04/02 08:30:16;;;;;;;10.57;2.58;;;;;;;30.34;16.96;100254.75;4923692;29;20134;-69
2021/04/02 08:32:45;;;;;;;6.95;2.28;;;;;;;28.53;17.91;100256.69;4926764;29;20540;-68
2021/04/02 08:35:14;;;;;;;10.82;2.85;;;;;;;28.99;18.10;100250.06;4929455;29;20067;-68
2021/04/02 08:37:56;;;;;;;13.00;3.47;;;;;;;29.42;17.86;100256.09;4927315;29;20069;-68
2021/04/02 08:40:22;;;;;;;8.23;2.70;;;;;;;29.77;16.98;100256.88;4929895;29;20051;-69
2021/04/02 08:42:50;;;;;;;8.63;2.58;;;;;;;29.94;16.90;100249.31;4929066;29;20057;-69
2021/04/02 08:45:19;;;;;;;8.27;2.33;;;;;;;29.89;16.70;100249.06;4928557;29;20566;-69
2021/04/02 08:47:48;;;;;;;10.50;3.10;;;;;;;29.58;16.65;100253.09;4928702;29;20123;-69
2021/04/02 08:50:15;;;;;;;3.50;2.38;;;;;;;30.06;16.20;100246.84;4926022;29;20075;-68
2021/04/02 08:52:41;;;;;;;6.85;2.17;;;;;;;30.06;16.67;100241.47;4929210;29;20550;-69
2021/04/02 08:55:09;;;;;;;6.72;3.25;;;;;;;30.92;16.10;100241.53;4927630;29;20044;-68
2021/04/02 08:57:37;;;;;;;8.60;2.60;;;;;;;30.38;16.09;100237.19;4929782;29;20455;-68
2021/04/02 09:00:07;;;;;;;14.80;4.75;;;;;;;30.66;16.49;100248.56;4926984;29;20075;-68
2021/04/02 09:02:36;;;;;;;6.95;2.72;;;;;;;30.23;16.54;100242.75;4926925;29;20075;-68
2021/04/02 09:05:05;;;;;;;12.02;3.20;;;;;;;29.56;17.57;100240.88;4926517;29;20038;-68
2021/04/02 09:07:40;;;;;;;7.78;2.50;;;;;;;29.77;17.43;100242.63;4928829;29;20099;-69
2021/04/02 09:10:14;;;;;;;8.23;2.65;;;;;;;29.90;17.72;100238.13;4927293;29;20067;-69
2021/04/02 09:12:48;;;;;;;14.40;2.75;;;;;;;30.11;17.49;100234.44;4927092;29;20521;-69
2021/04/02 09:15:20;;;;;;;6.28;3.22;;;;;;;29.84;17.92;100230.88;4929646;29;20082;-69
2021/04/02 09:17:47;;;;;;;15.13;3.58;;;;;;;29.07;18.77;100226.56;4910803;29;20047;-69
2021/04/02 09:20:17;;;;;;;8.05;2.83;;;;;;;28.71;19.87;100234.78;4925087;29;20079;-69
2021/04/02 09:22:44;;;;;;;9.25;4.03;;;;;;;28.25;19.32;100234.34;4924752;29;20044;-68
2021/04/02 09:25:17;;;;;;;5.45;2.78;;;;;;;28.63;19.02;100227.69;4928965;29;20687;-69
2021/04/02 09:27:44;;;;;;;9.65;3.10;;;;;;;28.70;18.79;100222.38;4925373;29;20044;-69
2021/04/02 09:30:26;;;;;;;10.80;2.80;;;;;;;27.97;18.78;100224.41;4910167;29;20126;-69
2021/04/02 09:32:53;;;;;;;6.50;3.22;;;;;;;27.54;19.48;100226.97;4924287;29;20439;-69
2021/04/02 09:35:21;;;;;;;5.53;3.05;;;;;;;27.38;19.66;100222.66;4924085;29;20042;-69
2021/04/02 09:37:48;;;;;;;9.45;2.63;;;;;;;27.20;20.21;100222.19;4926319;29;20088;-70
2021/04/02 09:40:15;;;;;;;8.27;4.38;;;;;;;26.41;21.10;100216.41;4926968;29;20174;-69
2021/04/02 09:42:46;;;;;;;12.57;3.38;;;;;;;26.31;21.39;100211.31;4930021;29;20118;-69
2021/04/02 09:45:13;;;;;;;5.10;3.00;;;;;;;26.07;22.04;100220.34;4930219;29;20399;-73
2021/04/02 09:47:44;;;;;;;6.63;3.40;;;;;;;26.18;21.63;100208.41;4930259;29;20046;-68
2021/04/02 09:50:14;;;;;;;6.30;3.42;;;;;;;26.12;21.90;100209.94;4927528;29;20073;-68
2021/04/02 09:52:42;;;;;;;8.80;3.95;;;;;;;26.04;21.76;100209.16;4925892;29;20050;-69
2021/04/02 09:55:10;;;;;;;7.35;4.47;;;;;;;25.64;22.03;100208.41;4927346;29;20068;-69
2021/04/02 09:57:37;;;;;;;6.95;3.42;;;;;;;25.37;22.24;100201.69;4929803;29;20052;-68
2021/04/02 10:00:06;;;;;;;7.05;3.30;;;;;;;25.11;22.73;100198.47;4926172;29;20086;-69
2021/04/02 10:02:35;;;;;;;6.88;4.00;;;;;;;25.18;22.91;100204.75;4923266;29;20075;-69
2021/04/02 10:05:06;;;;;;;5.32;3.30;;;;;;;24.81;23.63;100192.81;4931319;29;20040;-69
2021/04/02 10:07:32;;;;;;;10.20;4.55;;;;;;;24.97;24.60;100199.94;4934692;29;20058;-70
2021/04/02 10:09:59;;;;;;;8.55;3.45;;;;;;;24.75;24.09;100199.66;4913386;29;20055;-69
2021/04/02 10:12:25;;;;;;;9.10;5.50;;;;;;;24.61;23.85;100189.72;4930909;29;20063;-68
2021/04/02 10:14:52;;;;;;;8.75;3.95;;;;;;;24.61;24.00;100194.19;4934667;29;20050;-68
2021/04/02 10:17:18;;;;;;;5.57;4.68;;;;;;;24.63;23.84;100187.69;4935211;29;20048;-68
2021/04/02 10:19:45;;;;;;;5.40;3.92;;;;;;;24.64;24.19;100184.03;4934026;29;20063;-70
2021/04/02 10:22:11;;;;;;;11.02;5.20;;;;;;;24.56;23.94;100182.22;4933517;29;20045;-71
2021/04/02 10:24:38;;;;;;;10.10;4.97;;;;;;;24.47;24.01;100185.88;4920649;29;20126;-68
2021/04/02 10:27:04;;;;;;;8.82;4.25;;;;;;;24.38;24.13;100178.06;4922234;29;20071;-68
2021/04/02 10:29:31;;;;;;;15.90;5.78;;;;;;;24.48;24.22;100179.56;4918456;29;20521;-69
2021/04/02 10:31:57;;;;;;;8.05;4.50;;;;;;;24.64;23.96;100177.88;4930235;29;20043;-69
2021/04/02 10:34:24;;;;;;;7.72;4.88;;;;;;;24.40;24.77;100176.09;4929169;29;20131;-69
2021/04/02 10:36:52;;;;;;;11.00;5.07;;;;;;;24.68;24.51;100168.53;4922254;29;20040;-69
2021/04/02 10:39:19;;;;;;;10.35;4.10;;;;;;;24.24;24.63;100171.56;4929968;29;20047;-67
2021/04/02 10:41:45;;;;;;;10.82;4.53;;;;;;;24.40;24.07;100163.59;4925074;29;20035;-73
2021/04/02 10:44:12;;;;;;;13.57;5.63;;;;;;;24.16;25.00;100167.06;4921562;29;20063;-72
2021/04/02 10:46:40;;;;;;;17.20;6.00;;;;;;;24.18;24.44;100164.22;4926636;29;20048;-73
2021/04/02 10:49:06;;;;;;;11.02;5.07;;;;;;;24.36;24.52;100154.25;4923023;29;20044;-73
2021/04/02 10:51:33;;;;;;;16.05;5.18;;;;;;;24.47;24.68;100153.09;4920300;29;20076;-71
2021/04/02 10:54:02;;;;;;;10.80;5.68;;;;;;;24.38;25.59;100152.25;4923677;29;20048;-72
2021/04/02 10:56:30;;;;;;;9.27;5.07;;;;;;;24.14;26.36;100150.41;4905168;29;20089;-71
2021/04/02 10:58:57;;;;;;;8.38;5.05;;;;;;;24.27;25.49;100145.41;4930528;29;20056;-73
2021/04/02 11:01:24;;;;;;;7.63;5.47;;;;;;;24.22;24.95;100144.25;4936099;29;20135;-79
2021/04/02 11:03:51;;;;;;;17.15;5.18;;;;;;;24.22;25.31;100139.75;4936143;29;20044;-74
2021/04/02 11:06:17;;;;;;;12.30;5.10;;;;;;;24.22;25.70;100142.41;4917802;29;20067;-71
2021/04/02 11:08:45;;;;;;;16.73;6.10;;;;;;;24.30;25.06;100141.59;4934716;29;20521;-75
2021/04/02 11:11:11;;;;;;;12.43;4.70;;;;;;;24.35;25.15;100141.09;4934690;29;20188;-72
2021/04/02 11:13:38;;;;;;;13.38;6.10;;;;;;;24.35;24.00;100133.97;4934130;29;20498;-72
2021/04/02 11:16:05;;;;;;;10.93;4.43;;;;;;;24.29;24.69;100124.78;4935529;29;20123;-71
2021/04/02 11:18:32;;;;;;;10.30;6.85;;;;;;;24.06;24.52;100129.09;4934763;29;20495;-71
2021/04/02 11:20:59;;;;;;;13.40;6.28;;;;;;;23.78;24.64;100125.94;4934529;29;20075;-74
2021/04/02 11:23:27;;;;;;;9.75;6.35;;;;;;;24.01;24.26;100129.59;4934671;29;20107;-73
2021/04/02 11:25:55;;;;;;;11.75;6.65;;;;;;;24.20;24.19;100122.28;4934680;29;20060;-72
2021/04/02 11:28:23;;;;;;;9.63;5.72;;;;;;;24.11;24.47;100113.47;4934921;29;20110;-71
2021/04/02 11:30:50;;;;;;;9.43;5.90;;;;;;;24.05;24.97;100114.97;4934105;29;20044;-71
2021/04/02 11:33:16;;;;;;;6.53;4.28;;;;;;;24.17;24.81;100110.13;4934364;29;20486;-72
2021/04/02 11:35:42;;;;;;;9.10;5.05;;;;;;;24.07;25.22;100106.78;4933141;29;20031;-71